Time;durP1;ratioP1;P1;durP2;ratioP2;P2;SDS_P1;SDS_P2;PMS_P1;PMS_P2;Temp;Humidity;BMP_temperature;BMP_pressure;BME280_temperature;BME280_humidity;BME280_pressure;Samples;Min_cycle;Max_cycle;Signal;HPM_P1;HPM_P2
2021/12/11 00:00:19;;;;;;;6.75;2.58;;;;;;;;;;4946255;29;20191;-79
2021/12/11 00:02:54;;;;;;;6.10;2.30;;;;;;;;;;4951885;29;20781;-79
2021/12/11 00:05:20;;;;;;;3.70;2.10;;;;;;;;;;4945545;28;20280;-78
2021/12/11 00:07:47;;;;;;;3.63;2.08;;;;;;;;;;4965572;29;20172;-79
2021/12/11 00:10:16;;;;;;;7.57;2.20;;;;;;;;;;4946263;29;20183;-79
2021/12/11 00:12:45;;;;;;;4.75;1.65;;;;;;;;;;4946177;29;20593;-79
2021/12/11 00:15:31;;;;;;;5.88;1.80;;;;;;;;;;4946245;29;20184;-78
2021/12/11 00:17:59;;;;;;;8.02;2.33;;;;;;;;;;4952357;29;20184;-79
2021/12/11 00:20:27;;;;;;;4.25;2.10;;;;;;;;;;4948823;28;20285;-79
2021/12/11 00:22:53;;;;;;;7.35;2.72;;;;;;;;;;4966412;29;20437;-79
2021/12/11 00:25:20;;;;;;;5.35;2.22;;;;;;;;;;4946082;29;20208;-79
2021/12/11 00:27:47;;;;;;;4.57;2.28;;;;;;;;;;4959253;29;20188;-80
2021/12/11 00:30:40;;;;;;;4.60;2.10;;;;;;;;;;4965809;28;20239;-78
2021/12/11 00:33:12;;;;;;;7.80;3.30;;;;;;;;;;4948031;29;20195;-79
2021/12/11 00:35:39;;;;;;;9.75;3.42;;;;;;;;;;4965513;29;20188;-78
2021/12/11 00:38:11;;;;;;;9.05;3.55;;;;;;;;;;4949831;29;20188;-79
2021/12/11 00:40:37;;;;;;;6.18;2.80;;;;;;;;;;4964861;29;20247;-79
2021/12/11 00:43:05;;;;;;;6.00;2.65;;;;;;;;;;4946247;29;20557;-79
2021/12/11 00:45:33;;;;;;;9.63;3.42;;;;;;;;;;4945969;29;20269;-79
2021/12/11 00:48:01;;;;;;;5.10;2.55;;;;;;;;;;4945696;29;20253;-78
2021/12/11 00:50:29;;;;;;;4.35;1.92;;;;;;;;;;4948201;28;20208;-79
2021/12/11 00:52:57;;;;;;;9.45;3.45;;;;;;;;;;4945685;29;20173;-81
2021/12/11 00:55:26;;;;;;;12.85;2.50;;;;;;;;;;4947312;28;20211;-79
2021/12/11 00:58:01;;;;;;;6.05;2.30;;;;;;;;;;4965791;28;20192;-78
2021/12/11 01:00:27;;;;;;;6.65;2.67;;;;;;;;;;4964519;28;21012;-79
2021/12/11 01:02:54;;;;;;;3.30;2.00;;;;;;;;;;4947641;29;20180;-79
2021/12/11 01:05:22;;;;;;;4.47;2.38;;;;;;;;;;4947947;29;20248;-79
2021/12/11 01:07:48;;;;;;;5.38;2.97;;;;;;;;;;4948753;29;20646;-79
2021/12/11 01:10:21;;;;;;;5.07;2.38;;;;;;;;;;4944987;29;20259;-78
2021/12/11 01:12:54;;;;;;;2.22;1.50;;;;;;;;;;4965105;28;20240;-79
2021/12/11 01:15:25;;;;;;;5.00;1.90;;;;;;;;;;4945587;29;20203;-79
2021/12/11 01:20:56;;;;;;;6.47;2.42;;;;;;;;;;4964564;29;20207;-79
2021/12/11 01:26:02;;;;;;;4.35;2.40;;;;;;;;;;4965832;29;20212;-79
2021/12/11 01:28:29;;;;;;;4.72;2.55;;;;;;;;;;4944962;29;20181;-79
2021/12/11 01:30:55;;;;;;;5.10;2.30;;;;;;;;;;4964378;29;20247;-79
2021/12/11 01:33:21;;;;;;;4.45;1.95;;;;;;;;;;4944666;29;20188;-79
2021/12/11 01:35:48;;;;;;;3.75;1.92;;;;;;;;;;4947283;29;20273;-79
2021/12/11 01:38:17;;;;;;;5.05;1.88;;;;;;;;;;4964342;29;20212;-79
2021/12/11 01:40:45;;;;;;;6.15;4.25;;;;;;;;;;4960320;28;20274;-79
2021/12/11 01:43:11;;;;;;;2.38;1.70;;;;;;;;;;4944579;29;20185;-79
2021/12/11 01:45:39;;;;;;;9.00;2.00;;;;;;;;;;4944308;29;20201;-79
2021/12/11 01:48:05;;;;;;;3.88;1.90;;;;;;;;;;4944670;29;20185;-80
2021/12/11 01:50:33;;;;;;;5.50;2.15;;;;;;;;;;4947385;28;20224;-79
2021/12/11 01:53:08;;;;;;;4.38;2.15;;;;;;;;;;4945707;29;20176;-79
2021/12/11 01:55:39;;;;;;;4.65;1.92;;;;;;;;;;4964247;29;20191;-80
2021/12/11 01:58:06;;;;;;;6.57;2.20;;;;;;;;;;4944875;29;20193;-78
2021/12/11 02:00:37;;;;;;;5.78;2.30;;;;;;;;;;4965035;28;20236;-78
2021/12/11 02:03:06;;;;;;;3.92;2.22;;;;;;;;;;4944371;29;20181;-79
2021/12/11 02:05:33;;;;;;;4.70;2.35;;;;;;;;;;4946926;28;20231;-79
2021/12/11 02:08:02;;;;;;;5.55;2.40;;;;;;;;;;4964225;28;20188;-78
2021/12/11 02:10:34;;;;;;;5.70;1.95;;;;;;;;;;4948393;29;20184;-79
2021/12/11 02:13:02;;;;;;;4.22;2.20;;;;;;;;;;4951394;29;20192;-79
2021/12/11 02:15:34;;;;;;;6.43;2.55;;;;;;;;;;4947964;29;20184;-78
2021/12/11 02:18:08;;;;;;;2.33;1.52;;;;;;;;;;4948604;29;20203;-78
2021/12/11 02:20:51;;;;;;;8.32;2.00;;;;;;;;;;4950517;29;20212;-78
2021/12/11 02:23:17;;;;;;;5.28;1.77;;;;;;;;;;4948056;29;20587;-79
2021/12/11 02:25:46;;;;;;;6.05;2.05;;;;;;;;;;4966767;29;20208;-79
2021/12/11 02:28:18;;;;;;;6.57;2.78;;;;;;;;;;4964220;28;20184;-79
2021/12/11 02:30:44;;;;;;;3.25;1.88;;;;;;;;;;4966782;29;20235;-79
2021/12/11 02:33:14;;;;;;;4.90;2.87;;;;;;;;;;4947340;29;20176;-79
2021/12/11 02:35:45;;;;;;;6.55;2.42;;;;;;;;;;4968361;29;20450;-78
2021/12/11 02:38:44;;;;;;;11.05;2.30;;;;;;;;;;4968529;29;20188;-79
2021/12/11 02:41:13;;;;;;;3.75;1.80;;;;;;;;;;4874804;29;20200;-79
2021/12/11 02:44:05;;;;;;;7.60;3.38;;;;;;;;;;4875392;29;20203;-79
2021/12/11 02:46:34;;;;;;;3.20;2.08;;;;;;;;;;4860714;29;20222;-79
2021/12/11 02:49:06;;;;;;;4.85;1.88;;;;;;;;;;4875161;29;20196;-79
2021/12/11 02:51:36;;;;;;;4.47;2.22;;;;;;;;;;4873953;29;20263;-80
2021/12/11 02:54:10;;;;;;;2.95;1.90;;;;;;;;;;4872641;29;20192;-79
2021/12/11 02:56:39;;;;;;;5.47;2.45;;;;;;;;;;4853830;29;20644;-79
2021/12/11 02:59:08;;;;;;;7.10;2.75;;;;;;;;;;4856396;29;20194;-79
2021/12/11 03:01:39;;;;;;;7.13;1.95;;;;;;;;;;4874310;29;20219;-79
2021/12/11 03:04:16;;;;;;;3.55;1.88;;;;;;;;;;4878835;29;20331;-79
2021/12/11 03:06:45;;;;;;;7.07;1.90;;;;;;;;;;4866896;29;20685;-79
2021/12/11 03:09:13;;;;;;;3.03;1.48;;;;;;;;;;4873443;29;20270;-79
2021/12/11 03:11:39;;;;;;;2.85;1.48;;;;;;;;;;4855732;29;20670;-80
2021/12/11 03:14:08;;;;;;;5.45;1.70;;;;;;;;;;4856278;29;20351;-79
2021/12/11 03:16:35;;;;;;;6.47;1.60;;;;;;;;;;4908201;29;20556;-79
2021/12/11 03:19:03;;;;;;;3.65;1.90;;;;;;;;;;4943230;29;20185;-80
2021/12/11 03:21:29;;;;;;;3.95;1.73;;;;;;;;;;4956148;28;20207;-79
2021/12/11 03:23:56;;;;;;;6.70;1.95;;;;;;;;;;4949397;29;20189;-79
2021/12/11 03:26:22;;;;;;;5.35;1.63;;;;;;;;;;4950201;28;20200;-79
2021/12/11 03:28:48;;;;;;;3.08;1.83;;;;;;;;;;4950756;29;20176;-79
2021/12/11 03:31:15;;;;;;;4.47;1.67;;;;;;;;;;4947108;29;20269;-79
2021/12/11 03:33:43;;;;;;;6.35;1.77;;;;;;;;;;4966466;29;20696;-79
2021/12/11 03:36:12;;;;;;;4.78;1.73;;;;;;;;;;4947229;29;20821;-79
2021/12/11 03:38:40;;;;;;;6.00;1.92;;;;;;;;;;4949668;28;20220;-79
2021/12/11 03:41:06;;;;;;;6.07;2.08;;;;;;;;;;4950455;29;20200;-79
2021/12/11 03:43:33;;;;;;;7.50;2.20;;;;;;;;;;4946850;29;20192;-80
2021/12/11 03:46:03;;;;;;;2.17;1.27;;;;;;;;;;4946283;29;20227;-79
2021/12/11 03:48:31;;;;;;;6.57;1.90;;;;;;;;;;4946103;29;20190;-78
2021/12/11 03:50:58;;;;;;;3.80;1.40;;;;;;;;;;4950421;29;20805;-79
2021/12/11 03:53:24;;;;;;;4.30;1.63;;;;;;;;;;4966862;29;20690;-79
2021/12/11 03:55:52;;;;;;;4.97;2.03;;;;;;;;;;4950153;29;20252;-79
2021/12/11 03:58:18;;;;;;;2.83;1.33;;;;;;;;;;4966461;28;20188;-79
2021/12/11 04:00:47;;;;;;;7.13;1.70;;;;;;;;;;4946670;29;20204;-79
2021/12/11 04:03:15;;;;;;;5.18;2.00;;;;;;;;;;4965871;28;20184;-79
2021/12/11 04:05:43;;;;;;;3.80;1.40;;;;;;;;;;4949233;28;20669;-79
2021/12/11 04:08:10;;;;;;;6.40;2.20;;;;;;;;;;4950112;29;20177;-79
2021/12/11 04:10:36;;;;;;;8.40;1.95;;;;;;;;;;4946253;29;20180;-79
2021/12/11 04:13:04;;;;;;;5.53;1.95;;;;;;;;;;4947934;29;20192;-79
2021/12/11 04:15:30;;;;;;;2.90;1.75;;;;;;;;;;4945893;29;20276;-78
2021/12/11 04:17:57;;;;;;;4.20;1.85;;;;;;;;;;4953153;29;20188;-78
2021/12/11 04:20:26;;;;;;;2.72;2.22;;;;;;;;;;4956583;29;20186;-79
2021/12/11 04:22:52;;;;;;;8.93;1.83;;;;;;;;;;4948674;29;20210;-79
2021/12/11 04:25:20;;;;;;;2.97;1.50;;;;;;;;;;4947716;29;20212;-79
2021/12/11 04:27:47;;;;;;;6.30;2.45;;;;;;;;;;4965453;29;20192;-79
2021/12/11 04:30:15;;;;;;;3.22;1.83;;;;;;;;;;4966103;28;20208;-78
2021/12/11 04:32:41;;;;;;;4.82;2.50;;;;;;;;;;4947601;29;20176;-79
2021/12/11 04:35:07;;;;;;;2.88;1.75;;;;;;;;;;4937116;29;20177;-79
2021/12/11 04:37:34;;;;;;;3.50;1.75;;;;;;;;;;4963785;29;20192;-79
2021/12/11 04:40:03;;;;;;;9.20;2.35;;;;;;;;;;4945467;29;20197;-78
2021/12/11 04:45:29;;;;;;;5.15;2.17;;;;;;;;;;4965632;28;20219;-78
2021/12/11 04:48:03;;;;;;;5.45;2.10;;;;;;;;;;4972808;28;20185;-79
2021/12/11 04:50:40;;;;;;;3.30;1.58;;;;;;;;;;4965473;28;20172;-78
2021/12/11 04:53:21;;;;;;;1.42;1.33;;;;;;;;;;4948921;29;20204;-78
2021/12/11 05:02:05;;;;;;;7.32;2.50;;;;;;;;;;4921725;29;20198;-78
2021/12/11 05:04:18;;;;;;;6.50;2.45;;;;;;;;;;4916727;29;20324;-79
2021/12/11 05:09:35;;;;;;;5.35;2.28;;;;;;;;;;4921594;29;20207;-78
2021/12/11 05:14:50;;;;;;;2.67;1.58;;;;;;;;;;4921416;29;20185;-78
2021/12/11 05:17:17;;;;;;;4.43;1.85;;;;;;;;;;4924941;29;20186;-79
2021/12/11 05:19:44;;;;;;;4.95;1.95;;;;;;;;;;4905917;29;20201;-78
2021/12/11 05:22:11;;;;;;;9.77;3.72;;;;;;;;;;4921645;29;20197;-80
2021/12/11 05:24:38;;;;;;;6.18;2.05;;;;;;;;;;4905898;29;20190;-78
2021/12/11 05:27:05;;;;;;;6.95;2.53;;;;;;;;;;4905714;29;20210;-78
2021/12/11 05:29:31;;;;;;;4.72;1.90;;;;;;;;;;4924508;29;20277;-78
2021/12/11 05:31:57;;;;;;;5.55;1.98;;;;;;;;;;4922715;29;20197;-79
2021/12/11 05:34:23;;;;;;;7.07;2.03;;;;;;;;;;4906375;29;20213;-78
2021/12/11 05:36:49;;;;;;;5.50;2.45;;;;;;;;;;4958150;29;20195;-78
2021/12/11 05:39:17;;;;;;;3.55;2.10;;;;;;;;;;4944927;29;20481;-79
2021/12/11 05:41:44;;;;;;;4.68;2.10;;;;;;;;;;4958413;28;20186;-78
2021/12/11 05:44:10;;;;;;;4.10;2.08;;;;;;;;;;4948652;29;20263;-78
2021/12/11 05:46:37;;;;;;;5.10;2.13;;;;;;;;;;4946235;29;20212;-78
2021/12/11 05:49:04;;;;;;;8.88;2.35;;;;;;;;;;4964071;28;20196;-78
2021/12/11 05:51:37;;;;;;;3.22;2.08;;;;;;;;;;4964192;29;20184;-78
2021/12/11 05:54:03;;;;;;;5.68;2.05;;;;;;;;;;4931356;29;20265;-79
2021/12/11 05:56:34;;;;;;;7.90;2.58;;;;;;;;;;4947397;28;20192;-79
2021/12/11 05:59:01;;;;;;;7.13;3.28;;;;;;;;;;4963496;29;20171;-79
2021/12/11 06:01:35;;;;;;;6.20;2.55;;;;;;;;;;4944526;29;20631;-79
2021/12/11 06:04:03;;;;;;;5.97;2.53;;;;;;;;;;4964019;28;20234;-78
2021/12/11 06:06:29;;;;;;;5.15;2.90;;;;;;;;;;4964268;28;20235;-78
2021/12/11 06:08:55;;;;;;;7.57;2.83;;;;;;;;;;4964088;28;20176;-78
2021/12/11 06:11:21;;;;;;;6.97;2.70;;;;;;;;;;4947933;28;20692;-79
2021/12/11 06:13:48;;;;;;;5.35;2.85;;;;;;;;;;4964665;29;20192;-79
2021/12/11 06:16:14;;;;;;;6.55;2.33;;;;;;;;;;4964211;29;20263;-78
2021/12/11 06:18:41;;;;;;;4.68;3.35;;;;;;;;;;4944380;29;20279;-78
2021/12/11 06:21:07;;;;;;;8.13;3.38;;;;;;;;;;4944650;29;20208;-79
2021/12/11 06:23:33;;;;;;;11.48;3.95;;;;;;;;;;4947402;28;20694;-79
2021/12/11 06:25:59;;;;;;;14.40;5.15;;;;;;;;;;4965280;29;20204;-77
2021/12/11 06:28:25;;;;;;;17.20;6.38;;;;;;;;;;4944057;29;20786;-78
2021/12/11 06:30:54;;;;;;;12.85;5.32;;;;;;;;;;4951970;29;20184;-78
2021/12/11 06:33:21;;;;;;;13.63;6.50;;;;;;;;;;4951904;29;20173;-78
2021/12/11 06:35:47;;;;;;;14.57;6.63;;;;;;;;;;4931340;29;20191;-79
2021/12/11 06:38:15;;;;;;;10.80;5.20;;;;;;;;;;4947506;29;20173;-78
2021/12/11 06:40:42;;;;;;;18.02;6.15;;;;;;;;;;4950230;29;20440;-79
2021/12/11 06:43:08;;;;;;;7.72;5.15;;;;;;;;;;4950223;29;20204;-79
2021/12/11 06:45:34;;;;;;;12.43;5.18;;;;;;;;;;4963483;28;20231;-78
2021/12/11 06:48:00;;;;;;;8.80;4.38;;;;;;;;;;4944774;29;20192;-79
2021/12/11 06:50:26;;;;;;;9.18;4.32;;;;;;;;;;4948189;29;20187;-79
2021/12/11 06:52:53;;;;;;;8.45;3.75;;;;;;;;;;4947323;29;20209;-79
2021/12/11 06:55:19;;;;;;;16.92;5.15;;;;;;;;;;4966619;28;20185;-80
2021/12/11 06:57:46;;;;;;;10.48;3.05;;;;;;;;;;4966976;29;20180;-80
2021/12/11 07:00:14;;;;;;;8.82;3.90;;;;;;;;;;4960201;29;20248;-80
2021/12/11 07:02:40;;;;;;;6.05;3.65;;;;;;;;;;4950426;28;20193;-80
2021/12/11 07:05:06;;;;;;;6.50;2.83;;;;;;;;;;4951550;29;20232;-81
2021/12/11 07:07:35;;;;;;;17.83;3.28;;;;;;;;;;4967641;28;20585;-81
2021/12/11 07:10:01;;;;;;;5.10;2.72;;;;;;;;;;4947727;29;20267;-81
2021/12/11 07:12:28;;;;;;;7.20;3.50;;;;;;;;;;4947721;29;20250;-81
2021/12/11 07:14:54;;;;;;;4.30;2.60;;;;;;;;;;4949589;29;20666;-81
2021/12/11 07:17:20;;;;;;;4.47;2.50;;;;;;;;;;4950427;29;20176;-79
2021/12/11 07:19:47;;;;;;;5.13;2.25;;;;;;;;;;4966225;29;20263;-81
2021/12/11 07:22:13;;;;;;;4.55;2.60;;;;;;;;;;4951265;29;20195;-81
2021/12/11 07:25:00;;;;;;;9.70;2.35;;;;;;;;;;4967061;28;20184;-81
2021/12/11 07:27:26;;;;;;;4.70;2.35;;;;;;;;;;4956387;28;20188;-81
2021/12/11 07:29:52;;;;;;;6.25;2.03;;;;;;;;;;4959398;29;20200;-81
2021/12/11 07:32:18;;;;;;;5.68;2.22;;;;;;;;;;4950758;29;20181;-82
2021/12/11 07:34:44;;;;;;;5.65;2.60;;;;;;;;;;4966512;29;20180;-81
2021/12/11 07:37:10;;;;;;;8.95;3.60;;;;;;;;;;4949677;29;20192;-80
2021/12/11 07:39:36;;;;;;;5.40;2.60;;;;;;;;;;4947502;29;20190;-81
2021/12/11 07:42:03;;;;;;;5.47;2.28;;;;;;;;;;4966472;29;20202;-81
2021/12/11 07:44:29;;;;;;;6.93;2.65;;;;;;;;;;4966886;28;20181;-81
2021/12/11 07:46:57;;;;;;;8.05;2.85;;;;;;;;;;4951073;29;20211;-82
2021/12/11 07:49:23;;;;;;;7.45;3.13;;;;;;;;;;4946993;29;20192;-82
2021/12/11 07:51:50;;;;;;;4.88;2.35;;;;;;;;;;4965263;28;20233;-81
2021/12/11 07:54:16;;;;;;;2.85;1.98;;;;;;;;;;4966707;28;20211;-81
2021/12/11 07:56:43;;;;;;;6.10;2.95;;;;;;;;;;4966689;28;20195;-81
2021/12/11 07:59:09;;;;;;;3.83;2.30;;;;;;;;;;4972818;28;20221;-83
2021/12/11 08:01:37;;;;;;;4.82;2.80;;;;;;;;;;4945989;29;20665;-82
2021/12/11 08:04:04;;;;;;;6.70;3.05;;;;;;;;;;4966090;28;20284;-82
2021/12/11 08:06:31;;;;;;;7.57;2.58;;;;;;;;;;4948308;29;20213;-82
2021/12/11 08:08:57;;;;;;;2.78;2.45;;;;;;;;;;4949273;28;20184;-83
2021/12/11 08:11:28;;;;;;;5.75;2.67;;;;;;;;;;4954008;28;20273;-83
2021/12/11 08:13:54;;;;;;;6.30;2.80;;;;;;;;;;4950086;28;20267;-83
2021/12/11 08:16:25;;;;;;;5.97;2.17;;;;;;;;;;4964480;28;20716;-83
2021/12/11 08:18:53;;;;;;;12.15;3.55;;;;;;;;;;4965407;28;20650;-83
2021/12/11 08:21:19;;;;;;;4.35;2.58;;;;;;;;;;4948803;29;20261;-83
2021/12/11 08:23:48;;;;;;;8.65;2.88;;;;;;;;;;4968431;28;20184;-82
2021/12/11 08:26:16;;;;;;;6.10;2.50;;;;;;;;;;4948652;29;20267;-81
2021/12/11 08:28:42;;;;;;;5.72;3.03;;;;;;;;;;4949020;29;20184;-83
2021/12/11 08:31:08;;;;;;;5.75;3.28;;;;;;;;;;4965798;29;20191;-83
2021/12/11 08:33:36;;;;;;;5.68;2.58;;;;;;;;;;4964972;28;20236;-83
2021/12/11 08:36:02;;;;;;;5.65;3.20;;;;;;;;;;4947856;28;20193;-83
2021/12/11 08:38:28;;;;;;;8.50;3.38;;;;;;;;;;4948392;28;20184;-83
2021/12/11 08:40:56;;;;;;;5.05;2.80;;;;;;;;;;4965143;28;20185;-83
2021/12/11 08:43:22;;;;;;;4.95;3.00;;;;;;;;;;4945453;28;20195;-83
2021/12/11 08:46:00;;;;;;;7.15;3.13;;;;;;;;;;4949318;29;20271;-83
2021/12/11 08:48:27;;;;;;;5.80;3.22;;;;;;;;;;4945935;28;20231;-82
2021/12/11 08:50:58;;;;;;;10.85;4.70;;;;;;;;;;4947178;29;20264;-82
2021/12/11 08:53:24;;;;;;;8.63;4.38;;;;;;;;;;4947529;28;20222;-81
2021/12/11 08:55:54;;;;;;;9.65;4.28;;;;;;;;;;4943890;29;20192;-82
2021/12/11 08:58:21;;;;;;;8.50;5.38;;;;;;;;;;4947172;29;20181;-83
2021/12/11 09:00:54;;;;;;;6.75;4.40;;;;;;;;;;4949269;29;20525;-82
2021/12/11 09:03:36;;;;;;;6.05;3.88;;;;;;;;;;4964681;28;20595;-83
2021/12/11 09:06:15;;;;;;;9.38;3.67;;;;;;;;;;4950361;29;20219;-83
2021/12/11 09:09:04;;;;;;;7.68;3.90;;;;;;;;;;4964034;29;20189;-83
2021/12/11 09:11:39;;;;;;;8.75;3.95;;;;;;;;;;4958523;28;20192;-83
2021/12/11 09:14:14;;;;;;;9.35;5.18;;;;;;;;;;4964465;29;20264;-83
2021/12/11 09:16:49;;;;;;;13.75;3.08;;;;;;;;;;4944679;29;20180;-82
2021/12/11 09:19:15;;;;;;;7.78;3.20;;;;;;;;;;4943970;29;20207;-84
2021/12/11 09:21:46;;;;;;;9.07;4.05;;;;;;;;;;4964273;28;20192;-83
2021/12/11 09:24:23;;;;;;;9.48;3.38;;;;;;;;;;4962072;29;20188;-83
2021/12/11 09:27:01;;;;;;;4.18;2.88;;;;;;;;;;4933831;29;20753;-83
2021/12/11 09:29:27;;;;;;;8.48;3.35;;;;;;;;;;4946684;29;20228;-83
2021/12/11 09:31:53;;;;;;;7.03;2.97;;;;;;;;;;4948364;29;20650;-83
2021/12/11 09:34:21;;;;;;;4.32;2.25;;;;;;;;;;4945622;29;20516;-82
2021/12/11 09:36:49;;;;;;;6.43;2.92;;;;;;;;;;4948397;29;20220;-82
2021/12/11 09:39:21;;;;;;;4.10;2.72;;;;;;;;;;4945396;29;20192;-82
2021/12/11 09:41:47;;;;;;;3.38;2.47;;;;;;;;;;4948170;29;20583;-83
2021/12/11 09:44:15;;;;;;;7.78;2.53;;;;;;;;;;4948577;29;20187;-83
2021/12/11 09:46:50;;;;;;;12.93;3.40;;;;;;;;;;4964271;29;20294;-83
2021/12/11 09:49:19;;;;;;;5.25;2.75;;;;;;;;;;4944730;29;20199;-83
2021/12/11 09:51:47;;;;;;;6.75;2.88;;;;;;;;;;4944148;29;20191;-82
2021/12/11 09:54:22;;;;;;;11.57;4.07;;;;;;;;;;4945221;29;20696;-82
2021/12/11 09:56:50;;;;;;;14.20;3.67;;;;;;;;;;4949475;29;20188;-82
2021/12/11 09:59:18;;;;;;;8.02;3.30;;;;;;;;;;4948083;29;20181;-83
2021/12/11 10:01:46;;;;;;;8.15;3.10;;;;;;;;;;4945003;29;20203;-82
2021/12/11 10:04:20;;;;;;;8.50;3.08;;;;;;;;;;4964111;29;20232;-83
2021/12/11 10:07:13;;;;;;;11.65;2.95;;;;;;;;;;4944240;29;20210;-83
2021/12/11 10:09:44;;;;;;;11.52;2.83;;;;;;;;;;4964012;28;20188;-83
2021/12/11 10:12:15;;;;;;;9.25;2.70;;;;;;;;;;4944518;29;20189;-82
2021/12/11 10:14:45;;;;;;;7.63;2.88;;;;;;;;;;4964691;29;20689;-83
2021/12/11 10:17:13;;;;;;;11.32;3.78;;;;;;;;;;4947866;29;20184;-84
2021/12/11 10:19:40;;;;;;;5.00;3.05;;;;;;;;;;4944034;29;20192;-83
2021/12/11 10:22:12;;;;;;;8.35;2.45;;;;;;;;;;4964104;28;20216;-83
2021/12/11 10:24:39;;;;;;;7.43;3.50;;;;;;;;;;4944436;29;20291;-82
2021/12/11 10:27:06;;;;;;;5.20;3.45;;;;;;;;;;4944508;29;20203;-83
2021/12/11 10:29:32;;;;;;;8.20;2.90;;;;;;;;;;4949505;28;20224;-83
2021/12/11 10:32:01;;;;;;;10.68;3.90;;;;;;;;;;4951689;29;20173;-82
2021/12/11 10:34:29;;;;;;;6.63;3.40;;;;;;;;;;4947904;29;20196;-83
2021/12/11 10:37:04;;;;;;;12.07;3.63;;;;;;;;;;4967074;29;20184;-82
2021/12/11 10:39:30;;;;;;;9.38;3.58;;;;;;;;;;4948284;29;20184;-82
2021/12/11 10:41:57;;;;;;;15.50;3.78;;;;;;;;;;4967890;29;20220;-82
2021/12/11 10:44:25;;;;;;;9.02;2.80;;;;;;;;;;4950913;29;20180;-82
2021/12/11 10:46:59;;;;;;;9.30;3.30;;;;;;;;;;4951077;29;20674;-83
2021/12/11 10:49:25;;;;;;;4.57;2.80;;;;;;;;;;4947429;29;20195;-83
2021/12/11 10:51:57;;;;;;;8.70;2.85;;;;;;;;;;4948121;29;20200;-83
2021/12/11 10:54:24;;;;;;;11.57;3.40;;;;;;;;;;4948706;29;20591;-82
2021/12/11 10:56:50;;;;;;;5.82;3.95;;;;;;;;;;4967997;28;20297;-82
2021/12/11 10:59:19;;;;;;;9.57;2.97;;;;;;;;;;4968927;29;20188;-81
2021/12/11 11:01:55;;;;;;;8.00;4.07;;;;;;;;;;4962292;29;20239;-84
2021/12/11 11:04:26;;;;;;;8.50;3.40;;;;;;;;;;4947218;29;20219;-82
2021/12/11 11:06:52;;;;;;;6.38;3.47;;;;;;;;;;4967885;29;20208;-83
2021/12/11 11:09:19;;;;;;;8.02;3.72;;;;;;;;;;4947802;29;20184;-82
2021/12/11 11:11:46;;;;;;;8.73;3.88;;;;;;;;;;4950407;29;20275;-83
2021/12/11 11:14:13;;;;;;;8.57;3.00;;;;;;;;;;4951530;29;20172;-83
2021/12/11 11:16:41;;;;;;;8.25;2.95;;;;;;;;;;4946880;29;20196;-83
2021/12/11 11:19:07;;;;;;;9.88;3.40;;;;;;;;;;4948222;29;20604;-83
2021/12/11 11:21:35;;;;;;;4.28;2.85;;;;;;;;;;4966935;29;20507;-82
2021/12/11 11:24:01;;;;;;;7.47;3.65;;;;;;;;;;4967463;29;20192;-82
2021/12/11 11:26:31;;;;;;;9.88;3.55;;;;;;;;;;4950206;28;20204;-81
2021/12/11 11:28:59;;;;;;;4.80;2.88;;;;;;;;;;4950781;29;20187;-83
2021/12/11 11:31:28;;;;;;;6.93;2.83;;;;;;;;;;4947009;29;20232;-81
2021/12/11 11:33:54;;;;;;;7.35;3.58;;;;;;;;;;4965838;28;20187;-84
2021/12/11 11:36:22;;;;;;;5.30;3.70;;;;;;;;;;4958097;29;20216;-83
2021/12/11 11:38:50;;;;;;;4.72;3.08;;;;;;;;;;4955449;28;20623;-82
2021/12/11 11:41:24;;;;;;;10.73;4.45;;;;;;;;;;4967903;28;20184;-83
2021/12/11 11:43:51;;;;;;;8.35;3.30;;;;;;;;;;4967444;29;20930;-83
2021/12/11 11:46:17;;;;;;;13.02;4.35;;;;;;;;;;4946317;29;20439;-83
2021/12/11 11:48:46;;;;;;;11.25;4.47;;;;;;;;;;4947711;29;20228;-83
2021/12/11 11:51:15;;;;;;;8.00;3.78;;;;;;;;;;4941995;29;20184;-82
2021/12/11 11:53:41;;;;;;;10.35;3.90;;;;;;;;;;4949547;29;20200;-83
2021/12/11 11:56:08;;;;;;;8.15;4.10;;;;;;;;;;4970702;28;20191;-83
2021/12/11 11:58:34;;;;;;;9.07;3.80;;;;;;;;;;4970020;28;20190;-84
2021/12/11 12:01:12;;;;;;;8.38;4.20;;;;;;;;;;4959810;28;20240;-83
2021/12/11 12:03:39;;;;;;;10.45;3.80;;;;;;;;;;4966083;28;20188;-82
2021/12/11 12:06:06;;;;;;;9.52;3.90;;;;;;;;;;4946175;29;20217;-83
2021/12/11 12:08:33;;;;;;;7.60;3.97;;;;;;;;;;4949063;29;20172;-83
2021/12/11 12:11:00;;;;;;;11.20;4.20;;;;;;;;;;4973163;28;20179;-81
2021/12/11 12:13:27;;;;;;;7.60;3.78;;;;;;;;;;4945980;29;20269;-84
2021/12/11 12:16:01;;;;;;;7.90;3.75;;;;;;;;;;4958160;28;20681;-82
2021/12/11 12:18:27;;;;;;;5.80;3.40;;;;;;;;;;4966648;28;20251;-83
2021/12/11 12:20:54;;;;;;;9.23;3.22;;;;;;;;;;4966673;28;20193;-83
2021/12/11 12:23:20;;;;;;;7.60;3.63;;;;;;;;;;4966840;28;20676;-80
2021/12/11 12:25:47;;;;;;;5.80;3.10;;;;;;;;;;4967990;28;20201;-82
2021/12/11 12:28:13;;;;;;;8.00;3.50;;;;;;;;;;4965757;28;20220;-83
2021/12/11 12:30:42;;;;;;;7.28;3.58;;;;;;;;;;4949244;28;20184;-83
2021/12/11 12:33:09;;;;;;;9.45;3.38;;;;;;;;;;4968661;28;20189;-83
2021/12/11 12:35:36;;;;;;;10.27;4.53;;;;;;;;;;4953656;28;20195;-83
2021/12/11 12:38:03;;;;;;;5.68;2.78;;;;;;;;;;4949283;28;20215;-84
2021/12/11 12:40:38;;;;;;;9.27;3.70;;;;;;;;;;4966930;28;20282;-82
2021/12/11 12:43:11;;;;;;;9.57;2.97;;;;;;;;;;4954339;28;20273;-82
2021/12/11 12:45:40;;;;;;;8.90;3.63;;;;;;;;;;4951953;29;20413;-84
2021/12/11 12:48:11;;;;;;;7.40;2.60;;;;;;;;;;4949566;29;20245;-83
2021/12/11 12:50:42;;;;;;;9.25;3.10;;;;;;;;;;4942170;28;20198;-84
2021/12/11 12:53:10;;;;;;;13.18;3.55;;;;;;;;;;4949006;29;20536;-83
2021/12/11 12:55:40;;;;;;;10.50;4.55;;;;;;;;;;4946422;29;20192;-83
2021/12/11 12:58:09;;;;;;;7.90;4.10;;;;;;;;;;4945402;29;20188;-82
2021/12/11 13:00:35;;;;;;;16.90;4.55;;;;;;;;;;4964837;29;20244;-82
2021/12/11 13:03:03;;;;;;;9.23;4.27;;;;;;;;;;4946937;29;20196;-82
2021/12/11 13:05:35;;;;;;;12.57;4.65;;;;;;;;;;4956558;28;20479;-84
2021/12/11 13:08:04;;;;;;;7.00;4.05;;;;;;;;;;4939658;28;20690;-83
2021/12/11 13:10:34;;;;;;;13.20;5.60;;;;;;;;;;4967058;28;20188;-83
2021/12/11 13:13:01;;;;;;;7.28;3.88;;;;;;;;;;4963120;28;20192;-82
2021/12/11 13:15:32;;;;;;;10.73;5.57;;;;;;;;;;4972729;28;20190;-84
2021/12/11 13:17:59;;;;;;;4.50;3.35;;;;;;;;;;4963079;28;20180;-83
2021/12/11 13:20:31;;;;;;;5.72;3.28;;;;;;;;;;4965694;29;20192;-83
2021/12/11 13:22:57;;;;;;;9.75;4.03;;;;;;;;;;4965265;29;20240;-83
2021/12/11 13:25:31;;;;;;;12.30;4.45;;;;;;;;;;4964125;28;20216;-81
2021/12/11 13:28:00;;;;;;;5.65;3.08;;;;;;;;;;4950898;29;20195;-82
2021/12/11 13:30:29;;;;;;;8.07;2.70;;;;;;;;;;4944772;29;20180;-82
2021/12/11 13:32:55;;;;;;;6.75;3.03;;;;;;;;;;4946963;29;20196;-80
2021/12/11 13:35:23;;;;;;;9.45;3.08;;;;;;;;;;4948118;28;20216;-82
2021/12/11 13:37:49;;;;;;;8.80;2.70;;;;;;;;;;4963483;29;20184;-83
2021/12/11 13:40:16;;;;;;;8.00;3.88;;;;;;;;;;4946475;29;20255;-83
2021/12/11 13:42:43;;;;;;;7.05;2.63;;;;;;;;;;4952999;29;20193;-83
2021/12/11 13:45:15;;;;;;;10.52;2.67;;;;;;;;;;4964783;29;20267;-83
2021/12/11 13:47:44;;;;;;;9.30;4.10;;;;;;;;;;4963605;28;20271;-82
2021/12/11 13:50:13;;;;;;;6.25;3.38;;;;;;;;;;4948241;29;20630;-82
2021/12/11 13:52:39;;;;;;;6.20;3.60;;;;;;;;;;4945143;29;20188;-83
2021/12/11 13:55:07;;;;;;;6.45;3.47;;;;;;;;;;4949036;29;20243;-83
2021/12/11 13:57:33;;;;;;;10.45;3.67;;;;;;;;;;4963676;28;20188;-81
2021/12/11 14:00:02;;;;;;;12.80;4.65;;;;;;;;;;4963945;28;20189;-83
2021/12/11 14:02:28;;;;;;;11.07;3.30;;;;;;;;;;4947437;28;20180;-80
2021/12/11 14:04:56;;;;;;;5.38;2.85;;;;;;;;;;4944235;29;20221;-81
2021/12/11 14:07:23;;;;;;;5.40;2.83;;;;;;;;;;4946618;29;20208;-81
2021/12/11 14:09:58;;;;;;;8.73;3.03;;;;;;;;;;4944590;29;20180;-83
2021/12/11 14:12:25;;;;;;;8.52;3.20;;;;;;;;;;4943699;29;20196;-82
2021/12/11 14:14:53;;;;;;;8.25;3.30;;;;;;;;;;4946196;29;20654;-82
2021/12/11 14:17:19;;;;;;;10.10;3.35;;;;;;;;;;4946747;29;20191;-83
2021/12/11 14:19:46;;;;;;;9.65;3.20;;;;;;;;;;4944304;29;20188;-83
2021/12/11 14:22:17;;;;;;;9.85;4.88;;;;;;;;;;4950024;29;20257;-83
2021/12/11 14:24:45;;;;;;;6.82;3.25;;;;;;;;;;4950230;29;20217;-83
2021/12/11 14:27:14;;;;;;;7.90;3.47;;;;;;;;;;4943725;29;20223;-82
2021/12/11 14:29:45;;;;;;;9.10;3.35;;;;;;;;;;4957971;29;28558;-82
2021/12/11 14:32:12;;;;;;;11.23;3.17;;;;;;;;;;4964855;29;20168;-83
2021/12/11 14:34:38;;;;;;;10.98;3.30;;;;;;;;;;4943839;29;20200;-82
2021/12/11 14:37:04;;;;;;;12.85;3.72;;;;;;;;;;4945122;29;20196;-81
2021/12/11 14:39:30;;;;;;;13.65;8.25;;;;;;;;;;4964271;29;20180;-82
2021/12/11 14:41:56;;;;;;;7.68;4.60;;;;;;;;;;4945604;29;20201;-82
2021/12/11 14:44:24;;;;;;;12.82;7.30;;;;;;;;;;4947381;28;20180;-82
2021/12/11 14:46:52;;;;;;;10.95;6.50;;;;;;;;;;4946255;29;20215;-83
2021/12/11 14:49:19;;;;;;;8.27;5.53;;;;;;;;;;4963845;29;20192;-83
2021/12/11 14:51:45;;;;;;;7.32;4.80;;;;;;;;;;4964044;28;20191;-85
2021/12/11 14:54:15;;;;;;;4.38;3.70;;;;;;;;;;4949382;29;20276;-85
2021/12/11 14:56:44;;;;;;;7.78;3.47;;;;;;;;;;4946902;29;20206;-82
2021/12/11 14:59:12;;;;;;;8.73;4.18;;;;;;;;;;4947547;29;20223;-83
2021/12/11 15:01:40;;;;;;;49.72;28.05;;;;;;;;;;4943860;29;20243;-83
2021/12/11 15:04:10;;;;;;;106.15;64.53;;;;;;;;;;4945153;29;20232;-83
2021/12/11 15:06:37;;;;;;;56.22;34.13;;;;;;;;;;4943942;29;20279;-83
2021/12/11 15:09:05;;;;;;;91.85;53.13;;;;;;;;;;4963089;29;20269;-82